Balmoral — GRPM — position and weather

sailwx.info

Track history (hours):
 
Tides and Currents Weather Stations Pressure Air Temp Water Temp Dewpoint Dewpoint Depression Visibility Wind Speed Wind Dir Waves Ship Positions

Balmoral

Operator: Waverly Excursions Ltd

Last reported at 2017-Sep-24 19:20 UTC. Time now 2017-Sep-25 10:07 UTC.
Position N 51°30' W 000°05'.

Length 73 m; draft 2 m.

Type: Ship. MMSI: 232001540.

Date/timePositionNaut miles runAvg speedWind from/ knotsBaromVisibWave heightAir tempDewpointWater temp
2017-Sep-24 19:20N 51°30' W 000°05'40 7.4
2017-Sep-24 13:53N 51°29' E 000°60'40 8.4
2017-Sep-24 09:07N 51°30' W 000°05'0 0.0
2017-Sep-24 09:00N 51°30' W 000°05'0 0.0
2017-Sep-24 04:55N 51°30' W 000°05'0 0.0
2017-Sep-24 04:25N 51°30' W 000°05'0 0.0
2017-Sep-24 03:55N 51°30' W 000°05'0 0.0
2017-Sep-24 03:25N 51°30' W 000°05'0 0.0
2017-Sep-24 02:49N 51°30' W 000°05'0 0.0
2017-Sep-24 02:25N 51°30' W 000°05'0 0.0
2017-Sep-23 19:51N 51°30' W 000°05'62 1.5
2017-Sep-22 02:00N 51°06' E 001°27'816.0
2017-Sep-22 01:30N 51°02' E 001°16'1116.5
2017-Sep-22 00:52N 50°56' E 001°03'1116.0
2017-Sep-22 00:10N 50°50' E 000°47'215.1
2017-Sep-22 00:00N 50°49' E 000°44'714.8
2017-Sep-21 23:30N 50°46' E 000°33'714.8
2017-Sep-21 23:00N 50°43' E 000°22'815.6
2017-Sep-21 22:30N 50°43' E 000°10'815.7
2017-Sep-21 22:00N 50°43' W 000°02'815.7
2017-Sep-21 21:31N 50°43' W 000°15'815.5
2017-Sep-21 21:00N 50°43' W 000°27'815.4
2017-Sep-21 20:30N 50°42' W 000°39'815.6
2017-Sep-21 20:00N 50°42' W 000°51'816.1
2017-Sep-21 19:30N 50°44' W 001°03'4 8.2
2017-Sep-21 18:59N 50°48' W 001°07'0 0.0
2017-Sep-21 18:29N 50°48' W 001°07'0 0.0
2017-Sep-21 17:59N 50°48' W 001°07'0 0.0
2017-Sep-21 17:29N 50°48' W 001°07'2 5.0
2017-Sep-21 17:00N 50°46' W 001°08'713.0
2017-Sep-21 16:30N 50°46' W 001°18'912.4
2017-Sep-21 15:49N 50°43' W 001°30'0 0.0
2017-Sep-21 15:30N 50°43' W 001°30'7 8.2
2017-Sep-21 14:41N 50°46' W 001°21'315.1
2017-Sep-21 14:30N 50°46' W 001°16'613.0
2017-Sep-21 14:01N 50°47' W 001°06'1 2.4
2017-Sep-21 13:31N 50°48' W 001°07'510.4
2017-Sep-21 13:00N 50°43' W 001°04'1 2.5
2017-Sep-21 12:30N 50°44' W 001°05'612.6
2017-Sep-21 12:00N 50°46' W 001°14'612.4
2017-Sep-21 11:30N 50°45' W 001°24'5 9.1
2017-Sep-21 11:00N 50°43' W 001°30'2 4.8
2017-Sep-21 10:29N 50°44' W 001°27'612.5
2017-Sep-21 09:59N 50°47' W 001°18'613.3
2017-Sep-21 09:31N 50°46' W 001°08'2 4.2
2017-Sep-21 09:00N 50°48' W 001°07'3 5.2
2017-Sep-21 08:31N 50°46' W 001°10'714.7
2017-Sep-21 08:00N 50°50' W 001°20'3 0.2
2017-Sep-20 19:28N 50°53' W 001°23'612.5
2017-Sep-20 19:00N 50°47' W 001°19'917.2
2017-Sep-20 18:30N 50°43' W 001°30'9 5.7
2017-Sep-20 17:00N 50°47' W 001°18'4 8.1
2017-Sep-20 16:30N 50°46' W 001°12'4 8.2
2017-Sep-20 16:01N 50°46' W 001°05'510.8
2017-Sep-20 15:31N 50°46' W 001°14'612.2
2017-Sep-20 15:00N 50°45' W 001°24'7 6.7
2017-Sep-20 13:59N 50°42' W 001°33'611.3
2017-Sep-20 13:30N 50°41' W 001°42'612.4
2017-Sep-20 13:01N 50°38' W 001°51'4 8.3
2017-Sep-20 12:28N 50°37' W 001°57'4 5.4
2017-Sep-20 11:49N 50°34' W 002°01'15 1.0
2017-Sep-19 20:41N 50°37' W 002°25'513.8
2017-Sep-19 20:19N 50°34' W 002°18'1311.4
2017-Sep-19 19:09N 50°35' W 001°57'1 9.4
2017-Sep-19 19:01N 50°37' W 001°56'2 3.1
2017-Sep-19 18:30N 50°37' W 001°54'612.5
2017-Sep-19 18:00N 50°38' W 001°44'611.7
2017-Sep-19 17:30N 50°41' W 001°36'4 8.1
2017-Sep-19 17:00N 50°43' W 001°30'7 7.3
2017-Sep-19 16:00N 50°46' W 001°20'613.2
2017-Sep-19 15:30N 50°46' W 001°10'612.2
2017-Sep-19 15:00N 50°42' W 001°03'612.6
2017-Sep-19 14:30N 50°37' W 001°09'1710.6
2017-Sep-19 12:56N 50°39' W 001°35'510.6
2017-Sep-19 12:30N 50°43' W 001°31'1 1.5
2017-Sep-19 12:00N 50°43' W 001°30'4 7.3
2017-Sep-19 11:27N 50°40' W 001°35'4 9.4
2017-Sep-19 11:00N 50°39' W 001°42'612.4
2017-Sep-19 10:30N 50°37' W 001°51'4 7.8
2017-Sep-19 10:00N 50°37' W 001°57'4 7.8
2017-Sep-19 09:30N 50°38' W 001°51'714.1
2017-Sep-19 09:01N 50°39' W 001°40'1512.4
2017-Sep-19 07:49N 50°46' W 001°20'411.4
2017-Sep-19 07:30N 50°50' W 001°19'5 0.1
2017-Sep-17 20:18N 50°53' W 001°24'2 7.1
2017-Sep-17 19:59N 50°52' W 001°21'510.1
2017-Sep-17 19:30N 50°47' W 001°19'816.1
2017-Sep-17 19:00N 50°43' W 001°30'1 1.4
2017-Sep-17 18:30N 50°43' W 001°29'713.8
2017-Sep-17 18:01N 50°38' W 001°37'612.7
2017-Sep-17 17:30N 50°38' W 001°47'611.9
2017-Sep-17 17:01N 50°37' W 001°57'0 0.8
2017-Sep-17 16:30N 50°37' W 001°57'4 7.6
2017-Sep-17 16:01N 50°34' W 002°01'15 5.5
2017-Sep-17 13:19N 50°37' W 002°24'1715.1
2017-Sep-17 12:10N 50°35' W 001°57'211.3
2017-Sep-17 12:00N 50°37' W 001°57'0 0.8
2017-Sep-17 11:30N 50°37' W 001°57'2 4.4
2017-Sep-17 11:00N 50°37' W 001°54'510.5
2017-Sep-17 10:30N 50°38' W 001°46'612.5
2017-Sep-17 10:01N 50°40' W 001°36'5 9.3
2017-Sep-17 09:31N 50°43' W 001°30'7 9.6
2017-Sep-17 08:44N 50°46' W 001°20'313.4
2017-Sep-17 08:30N 50°49' W 001°18'4 0.3
2017-Sep-16 19:16N 50°52' W 001°22'414.9
2017-Sep-16 19:00N 50°49' W 001°18'714.0
2017-Sep-16 18:30N 50°46' W 001°08'2 3.4
2017-Sep-16 18:00N 50°48' W 001°07'4 8.3
2017-Sep-16 17:30N 50°46' W 001°13'816.2
2017-Sep-16 17:00N 50°44' W 001°25'4 7.2
2017-Sep-16 16:30N 50°43' W 001°30'810.6
2017-Sep-16 15:42N 50°46' W 001°18'211.3
2017-Sep-16 15:30N 50°46' W 001°15'612.5
2017-Sep-16 15:00N 50°45' W 001°05'611.0
2017-Sep-16 14:30N 50°39' W 001°06'1812.7
2017-Sep-16 13:07N 50°39' W 001°34'113.4
2017-Sep-16 13:00N 50°39' W 001°36'5 9.8
2017-Sep-16 12:29N 50°43' W 001°30'1 1.9
2017-Sep-16 12:00N 50°43' W 001°29'815.4
2017-Sep-16 11:30N 50°46' W 001°18'714.1
2017-Sep-16 11:00N 50°46' W 001°07'2 4.0
2017-Sep-16 10:30N 50°48' W 001°07'2 4.9
2017-Sep-16 10:00N 50°46' W 001°09'713.3
2017-Sep-16 09:31N 50°49' W 001°18'3 0.2
2017-Sep-15 18:24N 50°52' W 001°21'512.3
2017-Sep-15 18:01N 50°48' W 001°16'612.4
2017-Sep-15 17:30N 50°47' W 001°06'1 1.5
2017-Sep-15 17:00N 50°48' W 001°07'3 6.2
2017-Sep-15 16:30N 50°46' W 001°10'815.4
2017-Sep-15 16:00N 50°45' W 001°22'611.0
2017-Sep-15 15:30N 50°43' W 001°30'4 6.6
2017-Sep-15 14:57N 50°41' W 001°35'4 8.0
2017-Sep-15 14:30N 50°43' W 001°30'8 9.2
2017-Sep-15 13:35N 50°47' W 001°18'112.1
2017-Sep-15 13:30N 50°46' W 001°17'713.4
2017-Sep-15 13:00N 50°46' W 001°06'2 3.7
2017-Sep-15 12:30N 50°48' W 001°07'0 0.0
2017-Sep-15 12:00N 50°48' W 001°07'0 0.0
2017-Sep-15 11:30N 50°48' W 001°07'0 0.0
2017-Sep-15 11:00N 50°48' W 001°07'0 0.0
2017-Sep-15 10:30N 50°48' W 001°07'3 6.1
2017-Sep-15 10:00N 50°46' W 001°11'713.4
2017-Sep-15 09:31N 50°50' W 001°19'  
Track history (hours):
 
Tides and Currents Weather Stations Pressure Air Temp Water Temp Dewpoint Dewpoint Depression Visibility Wind Speed Wind Dir Waves Ship Positions

Balmoral

Operator: Waverly Excursions Ltd

Last reported at 2017-Sep-24 19:20 UTC. Time now 2017-Sep-25 10:07 UTC.
Position N 51°30' W 000°05'.

Length 73 m; draft 2 m.

Type: Ship. MMSI: 232001540.

Date/timePositionNaut miles runAvg speedWind from/ knotsBaromVisibWave heightAir tempDewpointWater temp
2017-Sep-24 19:20N 51°30' W 000°05'40 7.4
2017-Sep-24 13:53N 51°29' E 000°60'40 8.4
2017-Sep-24 09:07N 51°30' W 000°05'0 0.0
2017-Sep-24 09:00N 51°30' W 000°05'0 0.0
2017-Sep-24 04:55N 51°30' W 000°05'0 0.0
2017-Sep-24 04:25N 51°30' W 000°05'0 0.0
2017-Sep-24 03:55N 51°30' W 000°05'0 0.0
2017-Sep-24 03:25N 51°30' W 000°05'0 0.0
2017-Sep-24 02:49N 51°30' W 000°05'0 0.0
2017-Sep-24 02:25N 51°30' W 000°05'0 0.0
2017-Sep-23 19:51N 51°30' W 000°05'62 1.5
2017-Sep-22 02:00N 51°06' E 001°27'816.0
2017-Sep-22 01:30N 51°02' E 001°16'1116.5
2017-Sep-22 00:52N 50°56' E 001°03'1116.0
2017-Sep-22 00:10N 50°50' E 000°47'215.1
2017-Sep-22 00:00N 50°49' E 000°44'714.8
2017-Sep-21 23:30N 50°46' E 000°33'714.8
2017-Sep-21 23:00N 50°43' E 000°22'815.6
2017-Sep-21 22:30N 50°43' E 000°10'815.7
2017-Sep-21 22:00N 50°43' W 000°02'815.7
2017-Sep-21 21:31N 50°43' W 000°15'815.5
2017-Sep-21 21:00N 50°43' W 000°27'815.4
2017-Sep-21 20:30N 50°42' W 000°39'815.6
2017-Sep-21 20:00N 50°42' W 000°51'816.1
2017-Sep-21 19:30N 50°44' W 001°03'4 8.2
2017-Sep-21 18:59N 50°48' W 001°07'0 0.0
2017-Sep-21 18:29N 50°48' W 001°07'0 0.0
2017-Sep-21 17:59N 50°48' W 001°07'0 0.0
2017-Sep-21 17:29N 50°48' W 001°07'2 5.0
2017-Sep-21 17:00N 50°46' W 001°08'713.0
2017-Sep-21 16:30N 50°46' W 001°18'912.4
2017-Sep-21 15:49N 50°43' W 001°30'0 0.0
2017-Sep-21 15:30N 50°43' W 001°30'7 8.2
2017-Sep-21 14:41N 50°46' W 001°21'315.1
2017-Sep-21 14:30N 50°46' W 001°16'613.0
2017-Sep-21 14:01N 50°47' W 001°06'1 2.4
2017-Sep-21 13:31N 50°48' W 001°07'510.4
2017-Sep-21 13:00N 50°43' W 001°04'1 2.5
2017-Sep-21 12:30N 50°44' W 001°05'612.6
2017-Sep-21 12:00N 50°46' W 001°14'612.4
2017-Sep-21 11:30N 50°45' W 001°24'5 9.1
2017-Sep-21 11:00N 50°43' W 001°30'2 4.8
2017-Sep-21 10:29N 50°44' W 001°27'612.5
2017-Sep-21 09:59N 50°47' W 001°18'613.3
2017-Sep-21 09:31N 50°46' W 001°08'2 4.2
2017-Sep-21 09:00N 50°48' W 001°07'3 5.2
2017-Sep-21 08:31N 50°46' W 001°10'714.7
2017-Sep-21 08:00N 50°50' W 001°20'3 0.2
2017-Sep-20 19:28N 50°53' W 001°23'612.5
2017-Sep-20 19:00N 50°47' W 001°19'917.2
2017-Sep-20 18:30N 50°43' W 001°30'9 5.7
2017-Sep-20 17:00N 50°47' W 001°18'4 8.1
2017-Sep-20 16:30N 50°46' W 001°12'4 8.2
2017-Sep-20 16:01N 50°46' W 001°05'510.8
2017-Sep-20 15:31N 50°46' W 001°14'612.2
2017-Sep-20 15:00N 50°45' W 001°24'7 6.7
2017-Sep-20 13:59N 50°42' W 001°33'611.3
2017-Sep-20 13:30N 50°41' W 001°42'612.4
2017-Sep-20 13:01N 50°38' W 001°51'4 8.3
2017-Sep-20 12:28N 50°37' W 001°57'4 5.4
2017-Sep-20 11:49N 50°34' W 002°01'15 1.0
2017-Sep-19 20:41N 50°37' W 002°25'513.8
2017-Sep-19 20:19N 50°34' W 002°18'1311.4
2017-Sep-19 19:09N 50°35' W 001°57'1 9.4
2017-Sep-19 19:01N 50°37' W 001°56'2 3.1
2017-Sep-19 18:30N 50°37' W 001°54'612.5
2017-Sep-19 18:00N 50°38' W 001°44'611.7
2017-Sep-19 17:30N 50°41' W 001°36'4 8.1
2017-Sep-19 17:00N 50°43' W 001°30'7 7.3
2017-Sep-19 16:00N 50°46' W 001°20'613.2
2017-Sep-19 15:30N 50°46' W 001°10'612.2
2017-Sep-19 15:00N 50°42' W 001°03'612.6
2017-Sep-19 14:30N 50°37' W 001°09'1710.6
2017-Sep-19 12:56N 50°39' W 001°35'510.6
2017-Sep-19 12:30N 50°43' W 001°31'1 1.5
2017-Sep-19 12:00N 50°43' W 001°30'4 7.3
2017-Sep-19 11:27N 50°40' W 001°35'4 9.4
2017-Sep-19 11:00N 50°39' W 001°42'612.4
2017-Sep-19 10:30N 50°37' W 001°51'4 7.8
2017-Sep-19 10:00N 50°37' W 001°57'4 7.8
2017-Sep-19 09:30N 50°38' W 001°51'714.1
2017-Sep-19 09:01N 50°39' W 001°40'1512.4
2017-Sep-19 07:49N 50°46' W 001°20'411.4
2017-Sep-19 07:30N 50°50' W 001°19'5 0.1
2017-Sep-17 20:18N 50°53' W 001°24'2 7.1
2017-Sep-17 19:59N 50°52' W 001°21'510.1
2017-Sep-17 19:30N 50°47' W 001°19'816.1
2017-Sep-17 19:00N 50°43' W 001°30'1 1.4
2017-Sep-17 18:30N 50°43' W 001°29'713.8
2017-Sep-17 18:01N 50°38' W 001°37'612.7
2017-Sep-17 17:30N 50°38' W 001°47'611.9
2017-Sep-17 17:01N 50°37' W 001°57'0 0.8
2017-Sep-17 16:30N 50°37' W 001°57'4 7.6
2017-Sep-17 16:01N 50°34' W 002°01'15 5.5
2017-Sep-17 13:19N 50°37' W 002°24'1715.1
2017-Sep-17 12:10N 50°35' W 001°57'211.3
2017-Sep-17 12:00N 50°37' W 001°57'0 0.8
2017-Sep-17 11:30N 50°37' W 001°57'2 4.4
2017-Sep-17 11:00N 50°37' W 001°54'510.5
2017-Sep-17 10:30N 50°38' W 001°46'612.5
2017-Sep-17 10:01N 50°40' W 001°36'5 9.3
2017-Sep-17 09:31N 50°43' W 001°30'7 9.6
2017-Sep-17 08:44N 50°46' W 001°20'313.4
2017-Sep-17 08:30N 50°49' W 001°18'4 0.3
2017-Sep-16 19:16N 50°52' W 001°22'414.9
2017-Sep-16 19:00N 50°49' W 001°18'714.0
2017-Sep-16 18:30N 50°46' W 001°08'2 3.4
2017-Sep-16 18:00N 50°48' W 001°07'4 8.3
2017-Sep-16 17:30N 50°46' W 001°13'816.2
2017-Sep-16 17:00N 50°44' W 001°25'4 7.2
2017-Sep-16 16:30N 50°43' W 001°30'810.6
2017-Sep-16 15:42N 50°46' W 001°18'211.3
2017-Sep-16 15:30N 50°46' W 001°15'612.5
2017-Sep-16 15:00N 50°45' W 001°05'611.0
2017-Sep-16 14:30N 50°39' W 001°06'1812.7
2017-Sep-16 13:07N 50°39' W 001°34'113.4
2017-Sep-16 13:00N 50°39' W 001°36'5 9.8
2017-Sep-16 12:29N 50°43' W 001°30'1 1.9
2017-Sep-16 12:00N 50°43' W 001°29'815.4
2017-Sep-16 11:30N 50°46' W 001°18'714.1
2017-Sep-16 11:00N 50°46' W 001°07'2 4.0
2017-Sep-16 10:30N 50°48' W 001°07'2 4.9
2017-Sep-16 10:00N 50°46' W 001°09'713.3
2017-Sep-16 09:31N 50°49' W 001°18'3 0.2
2017-Sep-15 18:24N 50°52' W 001°21'512.3
2017-Sep-15 18:01N 50°48' W 001°16'612.4
2017-Sep-15 17:30N 50°47' W 001°06'1 1.5
2017-Sep-15 17:00N 50°48' W 001°07'3 6.2
2017-Sep-15 16:30N 50°46' W 001°10'815.4
2017-Sep-15 16:00N 50°45' W 001°22'611.0
2017-Sep-15 15:30N 50°43' W 001°30'4 6.6
2017-Sep-15 14:57N 50°41' W 001°35'4 8.0
2017-Sep-15 14:30N 50°43' W 001°30'8 9.2
2017-Sep-15 13:35N 50°47' W 001°18'112.1
2017-Sep-15 13:30N 50°46' W 001°17'713.4
2017-Sep-15 13:00N 50°46' W 001°06'2 3.7
2017-Sep-15 12:30N 50°48' W 001°07'0 0.0
2017-Sep-15 12:00N 50°48' W 001°07'0 0.0
2017-Sep-15 11:30N 50°48' W 001°07'0 0.0
2017-Sep-15 11:00N 50°48' W 001°07'0 0.0
2017-Sep-15 10:30N 50°48' W 001°07'3 6.1
2017-Sep-15 10:00N 50°46' W 001°11'713.4
2017-Sep-15 09:31N 50°50' W 001°19'  

Dump ship's entire track history